Time,TemperatureF,DewpointF,PressureIn,WindDirection,WindDirectionDegrees,WindSpeedMPH,WindSpeedGustMPH,Humidity,HourlyPrecipIn,Conditions,Clouds,dailyrainin,SoftwareType,DateUTC
2013-05-12 00:01:00,47.2,45.3,29.83,WNW,302,5.4,7.0,93,0.06,RA,,0.00,WeatherDisplay:10.37,2013-05-12 04:01:00,
2013-05-12 00:06:00,46.9,45.0,29.82,WNW,302,4.7,6.9,93,0.06,RA,,0.00,WeatherDisplay:10.37,2013-05-12 04:06:00,
2013-05-12 00:11:00,46.7,45.1,29.83,WNW,295,4.5,5.8,94,0.06,OVC,,0.00,WeatherDisplay:10.37,2013-05-12 04:11:00,
2013-05-12 00:16:00,46.5,44.9,29.83,NW,318,4.7,7.0,94,0.06,OVC,,0.00,WeatherDisplay:10.37,2013-05-12 04:16:00,
2013-05-12 00:21:00,46.4,44.8,29.83,West,277,4.0,6.0,94,0.06,OVC,,0.00,WeatherDisplay:10.37,2013-05-12 04:21:00,
2013-05-12 00:26:00,46.3,44.9,29.83,WNW,297,5.2,8.1,95,0.06,OVC,,0.00,WeatherDisplay:10.37,2013-05-12 04:26:00,
2013-05-12 00:31:00,46.3,44.9,29.84,WNW,290,5.2,6.9,95,0.06,OVC,,0.00,WeatherDisplay:10.37,2013-05-12 04:31:00,
2013-05-12 00:36:00,46.3,44.9,29.84,NW,304,5.1,7.0,95,0.02,OVC,,0.00,WeatherDisplay:10.37,2013-05-12 04:36:00,
2013-05-12 00:41:00,46.1,44.7,29.85,NW,307,6.1,12.7,95,0.01,OVC,,0.00,WeatherDisplay:10.37,2013-05-12 04:41:00,
2013-05-12 00:46:00,45.9,44.3,29.85,NW,323,5.5,11.5,94,0.00,OVC,,0.00,WeatherDisplay:10.37,2013-05-12 04:46:00,
2013-05-12 00:51:00,45.5,43.6,29.85,NW,321,6.0,9.2,93,0.00,OVC,,0.00,WeatherDisplay:10.37,2013-05-12 04:51:00,
2013-05-12 00:56:00,45.1,43.2,29.86,NW,309,2.6,4.6,93,0.00,OVC,,0.00,WeatherDisplay:10.37,2013-05-12 04:56:00,
2013-05-12 01:01:00,44.9,42.7,29.86,WNW,286,3.6,11.5,92,0.00,OVC,,0.00,WeatherDisplay:10.37,2013-05-12 05:01:00,
2013-05-12 01:06:00,44.5,42.0,29.86,WNW,288,5.7,12.7,91,0.00,OVC,,0.00,WeatherDisplay:10.37,2013-05-12 05:06:00,
2013-05-12 01:11:00,44.2,41.7,29.87,WNW,296,4.6,6.9,91,0.00,OVC,,0.00,WeatherDisplay:10.37,2013-05-12 05:11:00,
2013-05-12 01:16:00,44.0,41.5,29.87,NW,309,7.3,12.0,91,0.00,OVC,,0.00,WeatherDisplay:10.37,2013-05-12 05:16:00,
2013-05-12 01:21:00,43.8,41.3,29.88,NNW,344,4.8,6.0,91,0.00,OVC,,0.00,WeatherDisplay:10.37,2013-05-12 05:21:00,
2013-05-12 01:26:00,43.5,39.6,29.88,NW,312,7.0,10.4,86,0.00,OVC,,0.00,WeatherDisplay:10.37,2013-05-12 05:26:00,
2013-05-12 01:31:00,43.2,38.7,29.87,NNW,328,4.6,9.2,84,0.00,OVC,,0.00,WeatherDisplay:10.37,2013-05-12 05:31:00,
2013-05-12 01:36:00,42.8,38.6,29.87,NW,308,6.2,10.4,85,0.00,OVC,,0.00,WeatherDisplay:10.37,2013-05-12 05:36:00,
2013-05-12 01:41:00,42.6,38.4,29.87,NNE,17,4.6,6.9,85,0.00,OVC,,0.00,WeatherDisplay:10.37,2013-05-12 05:41:00,
2013-05-12 01:46:00,42.4,38.5,29.87,NW,318,4.8,5.8,86,0.00,OVC,,0.00,WeatherDisplay:10.37,2013-05-12 05:46:00,
2013-05-12 01:51:00,42.1,38.2,29.87,NW,323,2.6,6.9,86,0.00,OVC,,0.00,WeatherDisplay:10.37,2013-05-12 05:51:00,
2013-05-12 01:56:00,41.8,38.2,29.88,NNW,335,2.8,4.6,87,0.00,OVC,,0.00,WeatherDisplay:10.37,2013-05-12 05:56:00,
2013-05-12 02:01:00,41.6,38.0,29.88,North,9,3.0,8.1,87,0.00,BKN,,0.00,WeatherDisplay:10.37,2013-05-12 06:01:00,
2013-05-12 02:06:00,41.5,38.2,29.88,NW,318,2.4,4.6,88,0.00,BKN,,0.00,WeatherDisplay:10.37,2013-05-12 06:06:00,
2013-05-12 02:11:00,41.4,38.4,29.88,NW,304,2.4,4.6,89,0.00,BKN,,0.00,WeatherDisplay:10.37,2013-05-12 06:11:00,
2013-05-12 02:16:00,41.3,38.3,29.88,NW,304,2.4,5.8,89,0.00,BKN,,0.00,WeatherDisplay:10.37,2013-05-12 06:16:00,
2013-05-12 02:21:00,41.1,38.1,29.89,WNW,294,1.3,5.8,89,0.00,BKN,,0.00,WeatherDisplay:10.37,2013-05-12 06:21:00,
2013-05-12 02:26:00,40.9,37.9,29.88,WNW,295,1.2,3.5,89,0.00,BKN,,0.00,WeatherDisplay:10.37,2013-05-12 06:26:00,
2013-05-12 02:31:00,40.7,38.0,29.88,NW,305,3.0,4.6,90,0.00,BKN,,0.00,WeatherDisplay:10.37,2013-05-12 06:31:00,
2013-05-12 02:36:00,40.6,37.9,29.89,NW,305,3.8,4.6,90,0.00,BKN,,0.00,WeatherDisplay:10.37,2013-05-12 06:36:00,
2013-05-12 02:41:00,40.4,37.4,29.89,West,278,1.5,4.6,89,0.00,BKN,,0.00,WeatherDisplay:10.37,2013-05-12 06:41:00,
2013-05-12 02:46:00,40.2,37.2,29.89,WNW,289,2.6,9.2,89,0.00,BKN,,0.00,WeatherDisplay:10.37,2013-05-12 06:46:00,
2013-05-12 02:51:00,40.0,37.0,29.89,WNW,289,1.8,2.3,89,0.00,BKN,,0.00,WeatherDisplay:10.37,2013-05-12 06:51:00,
2013-05-12 02:56:00,39.8,36.5,29.89,WNW,296,2.3,4.6,88,0.00,BKN,,0.00,WeatherDisplay:10.37,2013-05-12 06:56:00,
2013-05-12 03:01:00,39.6,36.3,29.89,West,264,4.3,9.2,88,0.00,SCT,,0.00,WeatherDisplay:10.37,2013-05-12 07:01:00,
2013-05-12 03:06:00,39.5,36.2,29.89,West,264,1.8,3.5,88,0.00,SCT,,0.00,WeatherDisplay:10.37,2013-05-12 07:06:00,
2013-05-12 03:11:00,39.4,36.4,29.89,WNW,290,0.0,3.5,89,0.00,SCT,,0.00,WeatherDisplay:10.37,2013-05-12 07:11:00,
2013-05-12 03:16:00,39.2,36.2,29.89,WNW,290,0.4,1.1,89,0.00,SCT,,0.00,WeatherDisplay:10.37,2013-05-12 07:16:00,
2013-05-12 03:21:00,39.0,36.0,29.89,WNW,290,0.1,3.5,89,0.00,SCT,,0.00,WeatherDisplay:10.37,2013-05-12 07:21:00,
2013-05-12 03:26:00,38.8,36.1,29.89,WNW,290,0.2,1.1,90,0.00,SCT,,0.00,WeatherDisplay:10.37,2013-05-12 07:26:00,
2013-05-12 03:31:00,38.7,36.0,29.89,WNW,290,0.0,0.0,90,0.00,SCT,,0.00,WeatherDisplay:10.37,2013-05-12 07:31:00,
2013-05-12 03:36:00,38.5,35.8,29.89,West,278,0.0,1.0,90,0.00,SCT,,0.00,WeatherDisplay:10.37,2013-05-12 07:36:00,
2013-05-12 03:41:00,38.3,35.6,29.89,West,278,0.0,0.0,90,0.00,SCT,,0.00,WeatherDisplay:10.37,2013-05-12 07:41:00,
2013-05-12 03:46:00,38.1,35.7,29.89,West,278,0.0,0.0,91,0.00,SCT,,0.00,WeatherDisplay:10.37,2013-05-12 07:46:00,
2013-05-12 03:51:00,38.0,35.6,29.89,West,278,0.4,1.1,91,0.00,SCT,,0.00,WeatherDisplay:10.37,2013-05-12 07:51:00,
2013-05-12 03:56:00,37.8,35.7,29.89,West,278,0.0,0.0,92,0.00,SCT,,0.00,WeatherDisplay:10.37,2013-05-12 07:56:00,
2013-05-12 04:01:00,37.7,35.6,29.89,West,278,0.0,0.0,92,0.00,SCT,,0.00,WeatherDisplay:10.37,2013-05-12 08:01:00,
2013-05-12 04:06:00,37.5,35.4,29.89,West,278,0.0,0.0,92,0.00,SCT,,0.00,WeatherDisplay:10.37,2013-05-12 08:06:00,
2013-05-12 04:11:00,37.3,35.2,29.89,WSW,257,0.0,0.0,92,0.00,SCT,,0.00,WeatherDisplay:10.37,2013-05-12 08:11:00,
2013-05-12 04:16:00,37.2,35.4,29.89,WSW,257,0.0,0.0,93,0.00,SCT,,0.00,WeatherDisplay:10.37,2013-05-12 08:16:00,
2013-05-12 04:21:00,37.1,35.3,29.89,WSW,257,0.0,0.0,93,0.00,SCT,,0.00,WeatherDisplay:10.37,2013-05-12 08:21:00,
2013-05-12 04:26:00,36.9,35.1,29.89,WSW,257,0.0,0.0,93,0.00,SCT,,0.00,WeatherDisplay:10.37,2013-05-12 08:26:00,
2013-05-12 04:31:00,36.8,35.0,29.88,WSW,257,0.0,0.0,93,0.00,SCT,,0.00,WeatherDisplay:10.37,2013-05-12 08:31:00,
2013-05-12 04:36:00,36.6,34.8,29.88,WSW,257,0.0,0.0,93,0.00,SCT,,0.00,WeatherDisplay:10.37,2013-05-12 08:36:00,
2013-05-12 04:41:00,36.3,34.7,29.88,WSW,257,0.0,0.0,94,0.00,SCT,,0.00,WeatherDisplay:10.37,2013-05-12 08:41:00,
2013-05-12 04:46:00,36.2,34.6,29.88,WSW,257,0.0,0.0,94,0.00,SCT,,0.00,WeatherDisplay:10.37,2013-05-12 08:46:00,
2013-05-12 04:51:00,36.0,34.4,29.88,WSW,257,0.0,0.0,94,0.00,SCT,,0.00,WeatherDisplay:10.37,2013-05-12 08:51:00,
2013-05-12 04:56:00,35.8,34.2,29.88,WSW,257,0.0,0.0,94,0.00,SCT,,0.00,WeatherDisplay:10.37,2013-05-12 08:56:00,
2013-05-12 05:01:00,35.7,34.1,29.88,WSW,257,0.0,0.0,94,0.00,FEW,,0.00,WeatherDisplay:10.37,2013-05-12 09:01:00,
2013-05-12 05:06:00,35.5,34.2,29.88,WSW,257,0.0,0.0,95,0.00,FEW,,0.00,WeatherDisplay:10.37,2013-05-12 09:06:00,
2013-05-12 05:11:00,35.4,34.1,29.88,WSW,257,1.6,3.5,95,0.00,FEW,,0.00,WeatherDisplay:10.37,2013-05-12 09:11:00,
2013-05-12 05:16:00,35.3,34.0,29.88,WSW,257,0.0,0.0,95,0.00,FEW,,0.00,WeatherDisplay:10.37,2013-05-12 09:16:00,
2013-05-12 05:21:00,35.2,33.9,29.88,WSW,257,0.0,0.0,95,0.00,FEW,,0.00,WeatherDisplay:10.37,2013-05-12 09:21:00,
2013-05-12 05:26:00,35.2,34.2,29.88,WSW,257,0.0,0.0,96,0.00,FEW,,0.00,WeatherDisplay:10.37,2013-05-12 09:26:00,
2013-05-12 05:31:00,35.3,34.3,29.88,WSW,257,0.2,3.5,96,0.00,FEW,,0.00,WeatherDisplay:10.37,2013-05-12 09:31:00,
2013-05-12 05:36:00,35.6,34.8,29.88,WSW,250,0.0,0.0,97,0.00,FEW,,0.00,WeatherDisplay:10.37,2013-05-12 09:36:00,
2013-05-12 05:41:00,35.9,35.1,29.88,WSW,250,0.7,2.3,97,0.00,FEW,,0.00,WeatherDisplay:10.37,2013-05-12 09:41:00,
2013-05-12 05:46:00,36.1,35.3,29.88,SW,234,0.3,2.3,97,0.00,FEW,,0.00,WeatherDisplay:10.37,2013-05-12 09:46:00,
2013-05-12 05:51:00,36.2,35.4,29.88,SW,234,1.6,2.3,97,0.00,FEW,,0.00,WeatherDisplay:10.37,2013-05-12 09:51:00,
2013-05-12 05:56:00,36.1,35.3,29.89,SW,234,0.3,2.3,97,0.00,FEW,,0.00,WeatherDisplay:10.37,2013-05-12 09:56:00,
2013-05-12 06:01:00,36.1,35.3,29.88,SW,234,0.0,0.0,97,0.00,BKN,,0.00,WeatherDisplay:10.37,2013-05-12 10:01:00,
2013-05-12 06:06:00,36.0,35.2,29.88,SW,234,0.0,0.0,97,0.00,BKN,,0.00,WeatherDisplay:10.37,2013-05-12 10:06:00,
2013-05-12 06:11:00,35.8,34.8,29.88,SW,234,0.0,1.1,96,0.00,BKN,,0.00,WeatherDisplay:10.37,2013-05-12 10:11:00,
2013-05-12 06:16:00,35.8,35.0,29.89,SW,234,0.0,0.0,97,0.00,BKN,,0.00,WeatherDisplay:10.37,2013-05-12 10:16:00,
2013-05-12 06:21:00,35.7,34.9,29.89,SW,234,0.0,0.0,97,0.00,BKN,,0.00,WeatherDisplay:10.37,2013-05-12 10:21:00,
2013-05-12 06:26:00,35.8,35.0,29.89,SW,234,0.0,2.3,97,0.00,BKN,,0.00,WeatherDisplay:10.37,2013-05-12 10:26:00,
2013-05-12 06:31:00,35.9,35.1,29.89,SW,234,0.5,3.5,97,0.00,BKN,,0.00,WeatherDisplay:10.37,2013-05-12 10:31:00,
2013-05-12 06:36:00,36.1,35.6,29.89,SW,234,0.0,0.0,98,0.00,BKN,,0.00,WeatherDisplay:10.37,2013-05-12 10:36:00,
2013-05-12 06:41:00,36.3,35.8,29.89,SW,234,0.8,2.3,98,0.00,BKN,,0.00,WeatherDisplay:10.37,2013-05-12 10:41:00,
2013-05-12 06:46:00,36.5,36.0,29.89,SW,234,1.0,3.5,98,0.00,BKN,,0.00,WeatherDisplay:10.37,2013-05-12 10:46:00,
2013-05-12 06:51:00,36.7,36.2,29.89,SW,235,3.7,5.8,98,0.00,BKN,,0.00,WeatherDisplay:10.37,2013-05-12 10:51:00,
2013-05-12 06:56:00,36.8,36.0,29.89,WSW,258,1.5,4.6,97,0.00,BKN,,0.00,WeatherDisplay:10.37,2013-05-12 10:56:00,
2013-05-12 07:01:00,36.9,36.1,29.89,SW,227,1.9,3.5,97,0.00,BKN,,0.00,WeatherDisplay:10.37,2013-05-12 11:01:00,
2013-05-12 07:06:00,36.9,36.1,29.89,SW,226,0.4,2.3,97,0.00,BKN,,0.00,WeatherDisplay:10.37,2013-05-12 11:06:00,
2013-05-12 07:11:00,37.0,36.2,29.89,SW,227,1.3,3.5,97,0.00,BKN,,0.00,WeatherDisplay:10.37,2013-05-12 11:11:00,
2013-05-12 07:16:00,37.2,36.2,29.89,WSW,241,1.3,3.5,96,0.00,BKN,,0.00,WeatherDisplay:10.37,2013-05-12 11:16:00,
2013-05-12 07:21:00,37.3,36.3,29.89,WSW,243,0.4,3.5,96,0.00,BKN,,0.00,WeatherDisplay:10.37,2013-05-12 11:21:00,
2013-05-12 07:26:00,37.5,36.5,29.89,WSW,238,1.5,3.5,96,0.00,BKN,,0.00,WeatherDisplay:10.37,2013-05-12 11:26:00,
2013-05-12 07:31:00,37.8,36.5,29.89,WSW,238,1.8,3.5,95,0.00,BKN,,0.00,WeatherDisplay:10.37,2013-05-12 11:31:00,
2013-05-12 07:36:00,38.2,36.9,29.89,West,269,7.2,11.5,95,0.00,BKN,,0.00,WeatherDisplay:10.37,2013-05-12 11:36:00,
2013-05-12 07:41:00,38.7,37.1,29.90,WNW,299,2.2,4.0,94,0.00,BKN,,0.00,WeatherDisplay:10.37,2013-05-12 11:41:00,
2013-05-12 07:46:00,39.1,37.2,29.90,WSW,252,3.8,6.9,93,0.00,BKN,,0.00,WeatherDisplay:10.37,2013-05-12 11:46:00,
2013-05-12 07:51:00,39.5,37.4,29.90,SSW,207,3.6,3.6,92,0.00,BKN,,0.00,WeatherDisplay:10.37,2013-05-12 11:51:00,
2013-05-12 07:56:00,39.6,37.2,29.90,WSW,242,3.3,10.4,91,0.00,BKN,,0.00,WeatherDisplay:10.37,2013-05-12 11:56:00,
2013-05-12 08:01:00,39.7,37.0,29.90,WNW,285,1.0,4.0,90,0.00,SCT,,0.00,WeatherDisplay:10.37,2013-05-12 12:01:00,
2013-05-12 08:06:00,39.8,36.8,29.90,WSW,254,2.6,5.8,89,0.00,SCT,,0.00,WeatherDisplay:10.37,2013-05-12 12:06:00,
2013-05-12 08:12:00,39.9,36.9,29.90,WSW,258,4.4,6.0,89,0.00,SCT,,0.00,WeatherDisplay:10.37,2013-05-12 12:12:00,
2013-05-12 08:17:00,40.0,37.0,29.90,WSW,250,4.5,7.0,89,0.00,SCT,,0.00,WeatherDisplay:10.37,2013-05-12 12:17:00,
2013-05-12 08:22:00,40.3,37.3,29.90,WSW,252,5.9,9.2,89,0.00,SCT,,0.00,WeatherDisplay:10.37,2013-05-12 12:22:00,
2013-05-12 08:27:00,41.0,38.6,29.90,West,262,2.3,3.5,91,0.00,SCT,,0.00,WeatherDisplay:10.37,2013-05-12 12:27:00,
2013-05-12 08:32:00,41.5,37.6,29.90,WNW,289,3.9,4.6,86,0.00,SCT,,0.00,WeatherDisplay:10.37,2013-05-12 12:32:00,
2013-05-12 08:37:00,41.8,37.3,29.90,WSW,248,5.4,6.0,84,0.00,SCT,,0.00,WeatherDisplay:10.37,2013-05-12 12:37:00,
2013-05-12 08:42:00,41.9,37.1,29.90,WSW,244,2.4,5.0,83,0.00,SCT,,0.00,WeatherDisplay:10.37,2013-05-12 12:42:00,
2013-05-12 08:47:00,41.9,36.5,29.90,WSW,252,5.7,9.2,81,0.00,SCT,,0.00,WeatherDisplay:10.37,2013-05-12 12:47:00,
2013-05-12 08:52:00,42.0,36.9,29.90,SW,231,3.2,6.9,82,0.00,SCT,,0.00,WeatherDisplay:10.37,2013-05-12 12:52:00,
2013-05-12 08:57:00,42.5,37.1,29.90,WSW,256,8.3,11.5,81,0.00,SCT,,0.00,WeatherDisplay:10.37,2013-05-12 12:57:00,
2013-05-12 09:02:00,43.0,37.3,29.90,WNW,302,5.1,7.0,80,0.00,SCT,,0.00,WeatherDisplay:10.37,2013-05-12 13:02:00,
2013-05-12 09:07:00,43.5,37.1,29.90,WSW,240,4.4,8.1,78,0.00,SCT,,0.00,WeatherDisplay:10.37,2013-05-12 13:07:00,
2013-05-12 09:12:00,44.1,37.7,29.90,WNW,295,4.8,11.5,78,0.00,SCT,,0.00,WeatherDisplay:10.37,2013-05-12 13:12:00,
2013-05-12 09:17:00,44.6,38.5,29.90,WSW,246,2.5,3.5,79,0.00,SCT,,0.00,WeatherDisplay:10.37,2013-05-12 13:17:00,
2013-05-12 09:22:00,45.1,38.0,29.90,WNW,286,3.8,4.6,76,0.00,SCT,,0.00,WeatherDisplay:10.37,2013-05-12 13:22:00,
2013-05-12 09:27:00,45.5,37.3,29.90,SW,227,2.9,6.9,73,0.00,SCT,,0.00,WeatherDisplay:10.37,2013-05-12 13:27:00,
2013-05-12 09:32:00,45.9,37.7,29.90,WNW,282,4.2,8.1,73,0.00,SCT,,0.00,WeatherDisplay:10.37,2013-05-12 13:32:00,
2013-05-12 09:37:00,46.0,37.1,29.90,West,273,9.0,15.0,71,0.00,SCT,,0.00,WeatherDisplay:10.37,2013-05-12 13:37:00,
2013-05-12 09:42:00,46.0,36.4,29.90,WSW,238,3.1,15.0,69,0.00,SCT,,0.00,WeatherDisplay:10.37,2013-05-12 13:42:00,
2013-05-12 09:47:00,46.3,36.7,29.90,WSW,242,9.2,16.1,69,0.00,SCT,,0.00,WeatherDisplay:10.37,2013-05-12 13:47:00,
2013-05-12 09:52:00,46.3,35.6,29.90,WNW,286,6.9,18.4,66,0.00,SCT,,0.00,WeatherDisplay:10.37,2013-05-12 13:52:00,
2013-05-12 09:57:00,46.1,35.7,29.90,NW,319,3.8,10.4,67,0.00,SCT,,0.00,WeatherDisplay:10.37,2013-05-12 13:57:00,
2013-05-12 10:02:00,45.9,35.9,29.90,West,273,8.3,13.8,68,0.00,BKN,,0.00,WeatherDisplay:10.37,2013-05-12 14:02:00,
2013-05-12 10:07:00,45.6,34.5,29.90,West,277,9.9,16.1,65,0.00,BKN,,0.00,WeatherDisplay:10.37,2013-05-12 14:07:00,
2013-05-12 10:12:00,45.6,35.3,29.90,SW,229,6.8,12.0,67,0.00,BKN,,0.00,WeatherDisplay:10.37,2013-05-12 14:12:00,
2013-05-12 10:17:00,46.0,35.3,29.90,SW,227,6.1,11.5,66,0.00,BKN,,0.00,WeatherDisplay:10.37,2013-05-12 14:17:00,
2013-05-12 10:22:00,46.1,35.4,29.90,West,278,5.8,9.2,66,0.00,BKN,,0.00,WeatherDisplay:10.37,2013-05-12 14:22:00,
2013-05-12 10:27:00,46.4,36.0,29.90,WNW,296,7.5,8.0,67,0.00,BKN,,0.00,WeatherDisplay:10.37,2013-05-12 14:27:00,
2013-05-12 10:32:00,46.5,35.4,29.89,WSW,238,9.0,12.0,65,0.00,BKN,,0.00,WeatherDisplay:10.37,2013-05-12 14:32:00,
2013-05-12 10:37:00,46.5,35.0,29.90,West,261,5.9,11.5,64,0.00,BKN,,0.00,WeatherDisplay:10.37,2013-05-12 14:37:00,
2013-05-12 10:42:00,46.4,34.1,29.90,WSW,244,11.6,20.7,62,0.00,BKN,,0.00,WeatherDisplay:10.37,2013-05-12 14:42:00,
2013-05-12 10:47:00,46.1,34.2,29.90,West,269,8.0,19.6,63,0.00,BKN,,0.00,WeatherDisplay:10.37,2013-05-12 14:47:00,
2013-05-12 10:52:00,46.1,35.0,29.90,West,260,5.2,9.2,65,0.00,BKN,,0.00,WeatherDisplay:10.37,2013-05-12 14:52:00,
2013-05-12 10:57:00,46.2,35.1,29.90,West,269,7.5,12.0,65,0.00,BKN,,0.00,WeatherDisplay:10.37,2013-05-12 14:57:00,
2013-05-12 11:02:00,46.1,34.2,29.90,WNW,284,3.7,8.1,63,0.00,BKN,,0.00,WeatherDisplay:10.37,2013-05-12 15:02:00,
2013-05-12 11:07:00,46.0,34.5,29.91,NNW,331,7.3,9.2,64,0.00,BKN,,0.00,WeatherDisplay:10.37,2013-05-12 15:07:00,
2013-05-12 11:12:00,45.5,37.3,29.92,NNW,338,5.0,8.1,73,0.00,BKN,,0.00,WeatherDisplay:10.37,2013-05-12 15:12:00,
2013-05-12 11:17:00,44.6,38.5,29.92,West,265,3.3,8.0,79,0.00,BKN,,0.00,WeatherDisplay:10.37,2013-05-12 15:17:00,
2013-05-12 11:22:00,43.9,38.8,29.92,NW,308,4.1,5.8,82,0.00,BKN,,0.00,WeatherDisplay:10.37,2013-05-12 15:22:00,
2013-05-12 11:27:00,43.1,38.3,29.92,WNW,297,4.2,4.6,83,0.00,BKN,,0.00,WeatherDisplay:10.37,2013-05-12 15:27:00,
2013-05-12 11:32:00,42.4,37.6,29.92,NW,311,6.7,11.5,83,0.00,BKN,,0.00,WeatherDisplay:10.37,2013-05-12 15:32:00,
2013-05-12 11:37:00,41.9,37.4,29.93,NW,306,7.9,11.5,84,0.00,BKN,,0.00,WeatherDisplay:10.37,2013-05-12 15:37:00,
2013-05-12 11:42:00,41.7,37.5,29.93,WNW,300,5.1,11.5,85,0.00,BKN,,0.00,WeatherDisplay:10.37,2013-05-12 15:42:00,
2013-05-12 11:47:00,42.5,38.3,29.93,WNW,286,4.9,11.5,85,0.00,BKN,,0.00,WeatherDisplay:10.37,2013-05-12 15:47:00,
2013-05-12 11:52:00,42.8,37.7,29.93,NW,323,6.1,9.2,82,0.00,BKN,,0.00,WeatherDisplay:10.37,2013-05-12 15:52:00,
2013-05-12 11:57:00,42.6,37.8,29.93,WNW,294,4.8,9.2,83,0.00,BKN,,0.00,WeatherDisplay:10.37,2013-05-12 15:57:00,
2013-05-12 12:02:00,42.7,38.2,29.93,WNW,291,4.4,9.2,84,0.00,BKN,,0.00,WeatherDisplay:10.37,2013-05-12 16:02:00,
2013-05-12 12:07:00,42.9,37.8,29.93,WNW,300,5.8,7.0,82,0.00,BKN,,0.00,WeatherDisplay:10.37,2013-05-12 16:07:00,
2013-05-12 12:12:00,43.2,37.4,29.93,North,355,6.5,11.5,80,0.00,BKN,,0.00,WeatherDisplay:10.37,2013-05-12 16:12:00,
2013-05-12 12:17:00,43.4,37.6,29.93,West,273,4.3,7.0,80,0.00,BKN,,0.00,WeatherDisplay:10.37,2013-05-12 16:17:00,
2013-05-12 12:22:00,43.8,38.0,29.93,WNW,294,7.1,11.5,80,0.00,BKN,,0.00,WeatherDisplay:10.37,2013-05-12 16:22:00,
2013-05-12 12:27:00,44.5,38.7,29.93,WNW,297,8.4,11.0,80,0.00,BKN,,0.00,WeatherDisplay:10.37,2013-05-12 16:27:00,
2013-05-12 12:32:00,45.4,38.3,29.93,WSW,250,8.1,11.5,76,0.00,BKN,,0.00,WeatherDisplay:10.37,2013-05-12 16:32:00,
2013-05-12 12:37:00,45.9,38.1,29.92,West,280,5.6,9.2,74,0.00,BKN,,0.00,WeatherDisplay:10.37,2013-05-12 16:37:00,
2013-05-12 12:42:00,45.3,37.2,29.93,West,281,8.2,11.5,73,0.00,BKN,,0.00,WeatherDisplay:10.37,2013-05-12 16:42:00,
2013-05-12 12:47:00,44.7,36.9,29.93,NW,317,7.5,19.6,74,0.00,BKN,,0.00,WeatherDisplay:10.37,2013-05-12 16:47:00,
2013-05-12 12:52:00,44.8,38.0,29.93,NW,315,3.2,6.0,77,0.00,BKN,,0.00,WeatherDisplay:10.37,2013-05-12 16:52:00,
2013-05-12 12:57:00,45.5,39.7,29.93,NNE,28,2.9,5.8,80,0.00,BKN,,0.00,WeatherDisplay:10.37,2013-05-12 16:57:00,
2013-05-12 13:02:00,46.5,41.6,29.92,NW,314,2.3,6.0,83,0.00,BKN,,0.00,WeatherDisplay:10.37,2013-05-12 17:02:00,
2013-05-12 13:07:00,47.4,38.8,29.93,WNW,301,7.8,13.8,72,0.00,BKN,,0.00,WeatherDisplay:10.37,2013-05-12 17:07:00,
2013-05-12 13:12:00,47.9,38.9,29.93,WNW,303,7.1,12.7,71,0.00,BKN,,0.00,WeatherDisplay:10.37,2013-05-12 17:12:00,
2013-05-12 13:17:00,47.6,36.4,29.93,West,267,9.3,12.7,65,0.00,BKN,,0.00,WeatherDisplay:10.37,2013-05-12 17:17:00,
2013-05-12 13:22:00,47.0,36.2,29.93,WNW,291,7.8,18.4,66,0.00,BKN,,0.00,WeatherDisplay:10.37,2013-05-12 17:22:00,
2013-05-12 13:27:00,46.5,36.9,29.93,NNW,342,4.8,8.1,69,0.00,BKN,,0.00,WeatherDisplay:10.37,2013-05-12 17:27:00,
2013-05-12 13:32:00,46.7,37.4,29.94,NNW,333,6.3,6.9,70,0.00,BKN,,0.00,WeatherDisplay:10.37,2013-05-12 17:32:00,
2013-05-12 13:37:00,46.4,37.5,29.94,NNE,17,4.3,11.5,71,0.00,BKN,,0.00,WeatherDisplay:10.37,2013-05-12 17:37:00,
2013-05-12 13:42:00,46.3,38.1,29.94,NNW,336,4.9,6.9,73,0.00,BKN,,0.00,WeatherDisplay:10.37,2013-05-12 17:42:00,
2013-05-12 13:47:00,46.3,38.1,29.94,NNE,19,7.4,11.5,73,0.00,BKN,,0.00,WeatherDisplay:10.37,2013-05-12 17:47:00,
2013-05-12 13:52:00,46.0,37.8,29.94,NW,315,3.0,5.8,73,0.00,BKN,,0.00,WeatherDisplay:10.37,2013-05-12 17:52:00,
2013-05-12 13:57:00,45.7,37.5,29.94,North,360,2.6,4.6,73,0.00,BKN,,0.00,WeatherDisplay:10.37,2013-05-12 17:57:00,
2013-05-12 14:02:00,45.8,38.0,29.94,West,280,5.3,11.0,74,0.00,BKN,,0.00,WeatherDisplay:10.37,2013-05-12 18:02:00,
2013-05-12 14:07:00,46.7,36.7,29.94,WNW,297,10.6,12.7,68,0.00,BKN,,0.00,WeatherDisplay:10.37,2013-05-12 18:07:00,
2013-05-12 14:12:00,47.1,36.7,29.94,WNW,288,9.4,11.5,67,0.00,BKN,,0.00,WeatherDisplay:10.37,2013-05-12 18:12:00,
2013-05-12 14:17:00,47.3,36.1,29.94,West,280,5.7,12.7,65,0.00,BKN,,0.00,WeatherDisplay:10.37,2013-05-12 18:17:00,
2013-05-12 14:22:00,48.3,36.3,29.94,WNW,298,7.3,16.1,63,0.00,BKN,,0.00,WeatherDisplay:10.37,2013-05-12 18:22:00,
2013-05-12 14:27:00,49.3,38.4,29.94,NNW,329,8.8,15.0,66,0.00,BKN,,0.00,WeatherDisplay:10.37,2013-05-12 18:27:00,
2013-05-12 14:32:00,49.9,35.7,29.94,West,281,8.6,18.4,58,0.00,BKN,,0.00,WeatherDisplay:10.37,2013-05-12 18:32:00,
2013-05-12 14:37:00,49.3,34.7,29.94,WNW,291,5.7,10.4,57,0.00,BKN,,0.00,WeatherDisplay:10.37,2013-05-12 18:37:00,
2013-05-12 14:42:00,49.0,34.0,29.94,West,271,10.4,19.6,56,0.00,BKN,,0.00,WeatherDisplay:10.37,2013-05-12 18:42:00,
2013-05-12 14:47:00,49.3,36.8,29.94,West,271,5.0,8.1,62,0.00,BKN,,0.00,WeatherDisplay:10.37,2013-05-12 18:47:00,
2013-05-12 14:52:00,49.6,35.4,29.94,SW,216,4.6,9.2,58,0.00,BKN,,0.00,WeatherDisplay:10.37,2013-05-12 18:52:00,
2013-05-12 14:57:00,49.1,34.1,29.94,NNW,331,11.9,18.4,56,0.00,BKN,,0.00,WeatherDisplay:10.37,2013-05-12 18:57:00,
2013-05-12 15:02:00,49.0,36.1,29.94,NNW,335,10.0,10.0,61,0.00,BKN,,0.00,WeatherDisplay:10.37,2013-05-12 19:02:00,
2013-05-12 15:07:00,49.1,34.5,29.94,NW,306,5.0,11.5,57,0.00,BKN,,0.00,WeatherDisplay:10.37,2013-05-12 19:07:00,
2013-05-12 15:12:00,49.0,34.4,29.94,NW,306,7.3,11.5,57,0.00,BKN,,0.00,WeatherDisplay:10.37,2013-05-12 19:12:00,
2013-05-12 15:17:00,48.6,33.1,29.94,West,272,5.9,13.0,55,0.00,BKN,,0.00,WeatherDisplay:10.37,2013-05-12 19:17:00,
2013-05-12 15:22:00,48.2,32.3,29.94,WNW,294,8.4,13.8,54,0.00,BKN,,0.00,WeatherDisplay:10.37,2013-05-12 19:22:00,
2013-05-12 15:27:00,48.5,33.9,29.94,WSW,255,8.0,11.5,57,0.00,BKN,,0.00,WeatherDisplay:10.37,2013-05-12 19:27:00,
2013-05-12 15:32:00,48.3,33.3,29.94,West,267,5.1,15.0,56,0.00,BKN,,0.00,WeatherDisplay:10.37,2013-05-12 19:32:00,
2013-05-12 15:37:00,48.2,31.9,29.94,West,264,7.6,18.4,53,0.00,BKN,,0.00,WeatherDisplay:10.37,2013-05-12 19:37:00,
2013-05-12 15:42:00,48.6,34.5,29.94,SW,232,9.8,17.3,58,0.00,BKN,,0.00,WeatherDisplay:10.37,2013-05-12 19:42:00,
2013-05-12 15:47:00,48.6,32.7,29.94,WNW,294,8.3,13.8,54,0.00,BKN,,0.00,WeatherDisplay:10.37,2013-05-12 19:47:00,
2013-05-12 15:52:00,48.2,32.3,29.94,WNW,293,8.7,20.0,54,0.00,BKN,,0.00,WeatherDisplay:10.37,2013-05-12 19:52:00,
2013-05-12 15:57:00,48.4,34.3,29.94,WNW,298,5.1,12.0,58,0.00,BKN,,0.00,WeatherDisplay:10.37,2013-05-12 19:57:00,
2013-05-12 16:02:00,48.5,33.1,29.94,NW,320,7.0,11.5,55,0.00,BKN,,0.00,WeatherDisplay:10.37,2013-05-12 20:02:00,
2013-05-12 16:07:00,48.1,33.6,29.94,West,274,3.0,9.2,57,0.00,BKN,,0.00,WeatherDisplay:10.37,2013-05-12 20:07:00,
2013-05-12 16:12:00,48.1,33.6,29.95,West,269,8.6,9.2,57,0.00,BKN,,0.00,WeatherDisplay:10.37,2013-05-12 20:12:00,
2013-05-12 16:17:00,48.2,33.7,29.95,WNW,299,4.2,9.2,57,0.00,BKN,,0.00,WeatherDisplay:10.37,2013-05-12 20:17:00,
2013-05-12 16:22:00,48.5,34.8,29.95,NNW,343,7.8,8.1,59,0.00,BKN,,0.00,WeatherDisplay:10.37,2013-05-12 20:22:00,
2013-05-12 16:27:00,48.6,33.6,29.95,WNW,286,7.2,17.3,56,0.00,BKN,,0.00,WeatherDisplay:10.37,2013-05-12 20:27:00,
2013-05-12 16:32:00,48.3,34.2,29.95,WNW,292,4.7,8.0,58,0.00,BKN,,0.00,WeatherDisplay:10.37,2013-05-12 20:32:00,
2013-05-12 16:37:00,48.1,34.4,29.95,WNW,286,6.4,11.5,59,0.00,BKN,,0.00,WeatherDisplay:10.37,2013-05-12 20:37:00,
2013-05-12 16:42:00,48.2,34.5,29.95,WNW,290,4.6,6.9,59,0.00,BKN,,0.00,WeatherDisplay:10.37,2013-05-12 20:42:00,
2013-05-12 16:47:00,48.3,34.2,29.96,West,267,7.4,16.1,58,0.00,BKN,,0.00,WeatherDisplay:10.37,2013-05-12 20:47:00,
2013-05-12 16:52:00,48.0,32.6,29.96,WNW,301,6.4,11.5,55,0.00,BKN,,0.00,WeatherDisplay:10.37,2013-05-12 20:52:00,
2013-05-12 16:57:00,47.5,33.0,29.96,West,260,5.7,11.5,57,0.00,BKN,,0.00,WeatherDisplay:10.37,2013-05-12 20:57:00,
2013-05-12 17:02:00,47.5,34.3,29.96,WNW,288,3.9,12.0,60,0.00,-RA,,0.00,WeatherDisplay:10.37,2013-05-12 21:02:00,
2013-05-12 17:07:00,47.6,34.4,29.96,WSW,249,5.0,5.8,60,0.00,-RA,,0.00,WeatherDisplay:10.37,2013-05-12 21:07:00,
2013-05-12 17:12:00,47.5,32.6,29.96,WSW,257,7.6,13.8,56,0.00,-RA,,0.00,WeatherDisplay:10.37,2013-05-12 21:12:00,
2013-05-12 17:17:00,47.3,32.8,29.96,SW,234,6.6,9.2,57,0.00,-RA,,0.00,WeatherDisplay:10.37,2013-05-12 21:17:00,
2013-05-12 17:22:00,47.7,34.5,29.96,WNW,294,3.5,11.5,60,0.00,-RA,,0.00,WeatherDisplay:10.37,2013-05-12 21:22:00,
2013-05-12 17:27:00,48.1,34.0,29.96,NW,306,4.7,8.1,58,0.00,-RA,,0.00,WeatherDisplay:10.37,2013-05-12 21:27:00,
2013-05-12 17:32:00,48.1,33.6,29.97,North,350,7.7,11.5,57,0.00,-RA,,0.00,WeatherDisplay:10.37,2013-05-12 21:32:00,
2013-05-12 17:37:00,48.4,33.4,29.96,West,281,6.6,8.0,56,0.00,-RA,,0.00,WeatherDisplay:10.37,2013-05-12 21:37:00,
2013-05-12 17:42:00,48.3,34.2,29.97,WNW,292,8.8,11.5,58,0.00,-RA,,0.00,WeatherDisplay:10.37,2013-05-12 21:42:00,
2013-05-12 17:47:00,48.3,32.4,29.96,SW,235,5.7,11.5,54,0.00,-RA,,0.00,WeatherDisplay:10.37,2013-05-12 21:47:00,
2013-05-12 17:52:00,48.5,32.6,29.97,West,271,4.0,5.8,54,0.00,-RA,,0.00,WeatherDisplay:10.37,2013-05-12 21:52:00,
2013-05-12 17:57:00,48.6,33.1,29.97,WSW,246,8.0,12.7,55,0.00,-RA,,0.00,WeatherDisplay:10.37,2013-05-12 21:57:00,
2013-05-12 18:02:00,48.7,33.7,29.97,WNW,294,5.2,6.9,56,0.00,BKN,,0.00,WeatherDisplay:10.37,2013-05-12 22:02:00,
2013-05-12 18:07:00,49.1,32.7,29.96,WSW,246,7.0,11.5,53,0.00,BKN,,0.00,WeatherDisplay:10.37,2013-05-12 22:07:00,
2013-05-12 18:12:00,48.9,32.0,29.96,NW,325,4.2,9.2,52,0.00,BKN,,0.00,WeatherDisplay:10.37,2013-05-12 22:12:00,
2013-05-12 18:17:00,48.5,33.1,29.96,WSW,248,3.8,4.6,55,0.00,BKN,,0.00,WeatherDisplay:10.37,2013-05-12 22:17:00,
2013-05-12 18:22:00,48.4,33.4,29.96,WNW,288,6.7,11.5,56,0.00,BKN,,0.00,WeatherDisplay:10.37,2013-05-12 22:22:00,
2013-05-12 18:27:00,48.4,32.5,29.96,West,268,6.0,11.0,54,0.00,BKN,,0.00,WeatherDisplay:10.37,2013-05-12 22:27:00,
2013-05-12 18:32:00,48.2,32.3,29.96,NW,324,7.6,8.1,54,0.00,BKN,,0.00,WeatherDisplay:10.37,2013-05-12 22:32:00,
2013-05-12 18:37:00,47.9,31.6,29.96,WNW,300,6.7,12.7,53,0.00,BKN,,0.00,WeatherDisplay:10.37,2013-05-12 22:37:00,
2013-05-12 18:42:00,47.8,31.9,29.96,WSW,241,5.2,12.7,54,0.00,BKN,,0.00,WeatherDisplay:10.37,2013-05-12 22:42:00,
2013-05-12 18:47:00,47.7,33.6,29.96,NW,305,4.1,6.9,58,0.00,BKN,,0.00,WeatherDisplay:10.37,2013-05-12 22:47:00,
2013-05-12 18:52:00,47.6,33.5,29.97,SW,218,1.6,3.5,58,0.00,BKN,,0.00,WeatherDisplay:10.37,2013-05-12 22:52:00,
2013-05-12 18:57:00,47.5,33.4,29.97,WNW,301,4.9,6.0,58,0.00,BKN,,0.00,WeatherDisplay:10.37,2013-05-12 22:57:00,
2013-05-12 19:02:00,47.4,32.9,29.97,West,275,2.3,4.6,57,0.00,BKN,,0.00,WeatherDisplay:10.37,2013-05-12 23:02:00,
2013-05-12 19:07:00,47.2,33.2,29.98,NW,311,7.0,23.0,58,0.00,BKN,,0.00,WeatherDisplay:10.37,2013-05-12 23:07:00,
2013-05-12 19:12:00,46.5,35.0,29.98,WNW,303,7.0,9.2,64,0.00,BKN,,0.00,WeatherDisplay:10.37,2013-05-12 23:12:00,
2013-05-12 19:17:00,45.8,35.1,29.98,West,267,6.8,11.0,66,0.00,BKN,,0.00,WeatherDisplay:10.37,2013-05-12 23:17:00,
2013-05-12 19:22:00,45.3,35.7,29.98,WNW,295,2.4,4.6,69,0.00,BKN,,0.00,WeatherDisplay:10.37,2013-05-12 23:22:00,
2013-05-12 19:27:00,45.1,35.5,29.98,WNW,294,2.7,2.7,69,0.00,BKN,,0.00,WeatherDisplay:10.37,2013-05-12 23:27:00,
2013-05-12 19:32:00,45.0,35.4,29.98,WNW,294,1.9,3.5,69,0.00,BKN,,0.00,WeatherDisplay:10.37,2013-05-12 23:32:00,
2013-05-12 19:37:00,44.9,35.3,29.98,WSW,253,3.6,6.9,69,0.00,BKN,,0.00,WeatherDisplay:10.37,2013-05-12 23:37:00,
2013-05-12 19:42:00,45.0,35.4,29.98,West,280,3.2,5.8,69,0.00,BKN,,0.00,WeatherDisplay:10.37,2013-05-12 23:42:00,
2013-05-12 19:47:00,45.2,35.6,29.98,WNW,290,3.7,7.0,69,0.00,BKN,,0.00,WeatherDisplay:10.37,2013-05-12 23:47:00,
2013-05-12 19:52:00,45.4,34.3,29.98,WNW,284,4.6,6.9,65,0.00,BKN,,0.00,WeatherDisplay:10.37,2013-05-12 23:52:00,
2013-05-12 19:57:00,45.6,35.3,29.98,West,273,0.8,1.1,67,0.00,BKN,,0.00,WeatherDisplay:10.37,2013-05-12 23:57:00,
2013-05-12 20:02:00,45.7,36.1,29.98,West,273,1.1,2.3,69,0.00,BKN,,0.00,WeatherDisplay:10.37,2013-05-13 00:02:00,
2013-05-12 20:07:00,45.7,35.7,29.98,West,273,1.2,2.3,68,0.00,BKN,,0.00,WeatherDisplay:10.37,2013-05-13 00:07:00,
2013-05-12 20:12:00,45.8,35.8,29.99,West,281,2.4,5.8,68,0.00,BKN,,0.00,WeatherDisplay:10.37,2013-05-13 00:12:00,
2013-05-12 20:17:00,45.7,36.5,29.99,NW,321,0.3,4.6,70,0.00,BKN,,0.00,WeatherDisplay:10.37,2013-05-13 00:17:00,
2013-05-12 20:22:00,45.4,35.8,29.99,NW,307,4.0,4.0,69,0.00,BKN,,0.00,WeatherDisplay:10.37,2013-05-13 00:22:00,
2013-05-12 20:27:00,45.2,35.6,29.98,WNW,302,2.9,6.0,69,0.00,BKN,,0.00,WeatherDisplay:10.37,2013-05-13 00:27:00,
2013-05-12 20:32:00,45.1,35.5,29.99,WNW,290,3.4,4.0,69,0.00,BKN,,0.00,WeatherDisplay:10.37,2013-05-13 00:32:00,
2013-05-12 20:37:00,45.0,35.8,29.99,NNW,340,3.3,6.9,70,0.00,BKN,,0.00,WeatherDisplay:10.37,2013-05-13 00:37:00,
2013-05-12 20:42:00,44.9,36.4,29.99,NNW,327,1.9,4.6,72,0.00,BKN,,0.00,WeatherDisplay:10.37,2013-05-13 00:42:00,
2013-05-12 20:47:00,44.7,36.2,29.99,NW,315,4.4,5.8,72,0.00,BKN,,0.00,WeatherDisplay:10.37,2013-05-13 00:47:00,
2013-05-12 20:52:00,44.6,35.8,30.00,WNW,286,4.4,11.5,71,0.00,BKN,,0.00,WeatherDisplay:10.37,2013-05-13 00:52:00,
2013-05-12 20:57:00,44.6,36.1,30.00,WNW,302,2.4,4.0,72,0.00,BKN,,0.00,WeatherDisplay:10.37,2013-05-13 00:57:00,
2013-05-12 21:02:00,44.6,36.1,30.00,WNW,300,2.3,9.2,72,0.00,BKN,,0.00,WeatherDisplay:10.37,2013-05-13 01:02:00,
2013-05-12 21:07:00,44.6,35.8,30.00,NW,309,5.7,11.5,71,0.00,BKN,,0.00,WeatherDisplay:10.37,2013-05-13 01:07:00,
2013-05-12 21:12:00,44.6,36.8,30.01,WNW,287,6.4,11.5,74,0.00,BKN,,0.01,WeatherDisplay:10.37,2013-05-13 01:12:00,
2013-05-12 21:17:00,44.0,37.3,30.01,West,271,7.8,12.7,77,0.01,RA,,0.01,WeatherDisplay:10.37,2013-05-13 01:17:00,
2013-05-12 21:22:00,43.4,37.3,30.02,WNW,295,5.5,9.2,79,0.01,RA,,0.01,WeatherDisplay:10.37,2013-05-13 01:22:00,
2013-05-12 21:27:00,43.1,37.0,30.03,WNW,283,4.8,12.7,79,0.01,BKN,,0.02,WeatherDisplay:10.37,2013-05-13 01:27:00,
2013-05-12 21:32:00,42.6,37.8,30.03,West,273,2.5,11.5,83,0.02,RA,,0.02,WeatherDisplay:10.37,2013-05-13 01:32:00,
2013-05-12 21:37:00,42.1,37.6,30.03,WSW,238,5.0,5.0,84,0.02,RA,,0.02,WeatherDisplay:10.37,2013-05-13 01:37:00,
2013-05-12 21:42:00,41.7,37.2,30.03,West,272,2.3,4.6,84,0.02,BKN,,0.02,WeatherDisplay:10.37,2013-05-13 01:42:00,
2013-05-12 21:47:00,41.4,37.5,30.03,WSW,253,0.0,1.1,86,0.02,BKN,,0.02,WeatherDisplay:10.37,2013-05-13 01:47:00,
2013-05-12 21:52:00,41.3,37.7,30.03,West,279,0.1,2.3,87,0.02,BKN,,0.02,WeatherDisplay:10.37,2013-05-13 01:52:00,
2013-05-12 21:57:00,41.1,37.5,30.04,West,274,2.3,3.5,87,0.02,BKN,,0.02,WeatherDisplay:10.37,2013-05-13 01:57:00,
2013-05-12 22:02:00,41.1,37.5,30.04,WNW,286,3.1,6.9,87,0.02,-RA,,0.02,WeatherDisplay:10.37,2013-05-13 02:02:00,
2013-05-12 22:07:00,41.2,37.9,30.05,WNW,286,3.8,8.1,88,0.02,-RA,,0.02,WeatherDisplay:10.37,2013-05-13 02:07:00,
2013-05-12 22:12:00,41.3,38.0,30.05,WNW,285,1.6,2.3,88,0.02,-RA,,0.03,WeatherDisplay:10.37,2013-05-13 02:12:00,
2013-05-12 22:17:00,41.2,37.9,30.06,WNW,292,6.3,12.7,88,0.02,-RA,,0.03,WeatherDisplay:10.37,2013-05-13 02:17:00,
2013-05-12 22:22:00,40.7,37.7,30.05,NW,315,3.5,7.0,89,0.03,-RA,,0.04,WeatherDisplay:10.37,2013-05-13 02:22:00,
2013-05-12 22:27:00,40.3,37.3,30.05,WNW,288,4.9,8.1,89,0.03,-RA,,0.04,WeatherDisplay:10.37,2013-05-13 02:27:00,
2013-05-12 22:32:00,40.1,37.4,30.05,NW,311,0.1,2.3,90,0.02,-RA,,0.04,WeatherDisplay:10.37,2013-05-13 02:32:00,
2013-05-12 22:37:00,40.0,37.6,30.05,NW,311,0.1,2.0,91,0.02,-RA,,0.04,WeatherDisplay:10.37,2013-05-13 02:37:00,
2013-05-12 22:42:00,39.9,37.5,30.05,NW,306,2.8,3.5,91,0.02,-RA,,0.04,WeatherDisplay:10.37,2013-05-13 02:42:00,
2013-05-12 22:47:00,39.9,37.8,30.05,NW,306,2.2,3.5,92,0.02,-RA,,0.04,WeatherDisplay:10.37,2013-05-13 02:47:00,
2013-05-12 22:52:00,40.0,37.9,30.06,NW,306,2.1,2.3,92,0.02,-RA,,0.04,WeatherDisplay:10.37,2013-05-13 02:52:00,
2013-05-12 22:57:00,40.1,38.0,30.06,WNW,292,0.8,5.8,92,0.02,-RA,,0.04,WeatherDisplay:10.37,2013-05-13 02:57:00,
2013-05-12 23:02:00,40.2,38.1,30.06,WSW,247,4.2,5.8,92,0.02,OVC,,0.04,WeatherDisplay:10.37,2013-05-13 03:02:00,
2013-05-12 23:07:00,40.2,38.1,30.07,WSW,241,4.2,8.0,92,0.02,OVC,,0.04,WeatherDisplay:10.37,2013-05-13 03:07:00,
2013-05-12 23:12:00,40.0,37.6,30.07,WSW,250,2.5,4.6,91,0.02,OVC,,0.04,WeatherDisplay:10.37,2013-05-13 03:12:00,
2013-05-12 23:17:00,39.7,37.6,30.06,SW,221,2.5,4.6,92,0.02,RA,,0.05,WeatherDisplay:10.37,2013-05-13 03:17:00,
2013-05-12 23:22:00,39.5,37.4,30.07,SW,234,1.4,2.0,92,0.02,RA,,0.05,WeatherDisplay:10.37,2013-05-13 03:22:00,
2013-05-12 23:27:00,39.4,37.3,30.07,West,279,4.4,6.9,92,0.02,RA,,0.06,WeatherDisplay:10.37,2013-05-13 03:27:00,
2013-05-12 23:32:00,39.3,37.2,30.07,WNW,286,1.2,2.3,92,0.02,RA,,0.06,WeatherDisplay:10.37,2013-05-13 03:32:00,
2013-05-12 23:37:00,39.3,37.4,30.07,WNW,286,0.0,0.0,93,0.02,OVC,,0.06,WeatherDisplay:10.37,2013-05-13 03:37:00,
2013-05-12 23:42:00,39.3,37.4,30.07,WNW,286,0.0,1.1,93,0.02,OVC,,0.06,WeatherDisplay:10.37,2013-05-13 03:42:00,
2013-05-12 23:47:00,39.2,37.6,30.07,WNW,286,1.3,2.3,94,0.02,OVC,,0.06,WeatherDisplay:10.37,2013-05-13 03:47:00,
2013-05-12 23:52:00,39.2,37.3,30.07,WNW,285,1.4,4.6,93,0.02,OVC,,0.06,WeatherDisplay:10.37,2013-05-13 03:52:00,
2013-05-12 23:57:00,39.1,37.2,30.07,WNW,285,0.0,0.0,93,0.02,OVC,,0.06,WeatherDisplay:10.37,2013-05-13 03:57:00,